Time;durP1;ratioP1;P1;durP2;ratioP2;P2;SDS_P1;SDS_P2;PMS_P1;PMS_P2;Temp;Humidity;BMP_temperature;BMP_pressure;BME280_temperature;BME280_humidity;BME280_pressure;Samples;Min_cycle;Max_cycle;Signal;HPM_P1;HPM_P2
2021/06/06 00:00:01;;;;;;;152.73;95.67;;;18.60;99.90;;;;;;4971719;28;20446;-70
2021/06/06 00:02:28;;;;;;;133.87;89.20;;;18.60;99.90;;;;;;4972648;28;20449;-71
2021/06/06 00:04:56;;;;;;;138.40;94.27;;;18.60;99.90;;;;;;4972147;28;20532;-69
2021/06/06 00:07:22;;;;;;;152.30;93.77;;;18.60;99.90;;;;;;4970909;28;20475;-72
2021/06/06 00:09:49;;;;;;;134.30;92.90;;;18.50;99.90;;;;;;4971844;28;20904;-72
2021/06/06 00:12:15;;;;;;;140.37;90.63;;;18.60;99.90;;;;;;4971506;28;20449;-70
2021/06/06 00:14:42;;;;;;;139.03;90.07;;;18.40;99.90;;;;;;4972967;28;20487;-71
2021/06/06 00:17:12;;;;;;;136.57;88.43;;;18.30;99.90;;;;;;4968987;28;20482;-72
2021/06/06 00:19:39;;;;;;;138.47;87.17;;;18.30;99.90;;;;;;4968801;28;20460;-76
2021/06/06 00:22:08;;;;;;;130.03;79.43;;;18.30;99.90;;;;;;4972280;28;20465;-73
2021/06/06 00:24:37;;;;;;;142.87;93.00;;;18.20;99.90;;;;;;4981281;28;20449;-72
2021/06/06 00:27:05;;;;;;;143.93;91.30;;;18.20;99.90;;;;;;4970157;28;21854;-70
2021/06/06 00:29:32;;;;;;;137.10;84.30;;;18.10;99.90;;;;;;4972248;28;20446;-71
2021/06/06 00:31:59;;;;;;;131.87;82.60;;;18.00;99.90;;;;;;4972128;28;20448;-72
2021/06/06 00:34:28;;;;;;;174.47;97.23;;;18.00;99.90;;;;;;4971235;28;20477;-71
2021/06/06 00:36:55;;;;;;;144.40;91.20;;;18.00;99.90;;;;;;4972340;28;20480;-71
2021/06/06 00:39:22;;;;;;;129.83;86.67;;;18.00;99.90;;;;;;4972091;28;20460;-71
2021/06/06 00:41:50;;;;;;;135.53;83.03;;;18.00;99.90;;;;;;4972612;28;20450;-70
2021/06/06 00:44:19;;;;;;;147.53;88.47;;;18.00;99.90;;;;;;4969189;28;20442;-71
2021/06/06 00:46:46;;;;;;;150.87;91.03;;;18.00;99.90;;;;;;4966277;28;20461;-72
2021/06/06 00:49:13;;;;;;;108.47;67.40;;;18.00;99.90;;;;;;4971560;28;20448;-71
2021/06/06 00:51:48;;;;;;;140.83;80.17;;;18.00;99.90;;;;;;4972716;28;20524;-73
2021/06/06 00:54:18;;;;;;;123.80;71.50;;;17.90;99.90;;;;;;4971854;28;20480;-73
2021/06/06 00:56:49;;;;;;;119.90;69.87;;;17.90;99.90;;;;;;4975375;28;20480;-69
2021/06/06 00:59:19;;;;;;;119.17;71.30;;;17.90;99.90;;;;;;4967639;28;20470;-71
2021/06/06 01:01:46;;;;;;;113.80;67.57;;;17.90;99.90;;;;;;4971771;28;20445;-72
2021/06/06 01:04:13;;;;;;;103.33;59.50;;;17.90;99.90;;;;;;4969005;28;20854;-72
2021/06/06 01:06:43;;;;;;;125.00;69.83;;;17.90;99.90;;;;;;4974962;28;20499;-71
2021/06/06 01:09:11;;;;;;;120.15;62.65;;;17.80;99.90;;;;;;4968842;28;20426;-74
2021/06/06 01:11:43;;;;;;;99.93;60.20;;;17.80;99.90;;;;;;4975375;28;20222;-72
2021/06/06 01:14:15;;;;;;;116.37;64.93;;;17.70;99.90;;;;;;4975601;28;20445;-73
2021/06/06 01:16:46;;;;;;;100.53;59.60;;;17.80;99.90;;;;;;4974740;28;20464;-72
2021/06/06 01:19:27;;;;;;;103.40;58.90;;;17.70;99.90;;;;;;4971913;28;20956;-71
2021/06/06 01:22:10;;;;;;;106.10;58.87;;;17.70;99.90;;;;;;4975405;28;20441;-70
2021/06/06 01:24:40;;;;;;;98.73;56.30;;;17.60;99.90;;;;;;4958886;28;20446;-70
2021/06/06 01:27:10;;;;;;;95.80;57.60;;;17.70;99.90;;;;;;4974848;28;20481;-69
2021/06/06 01:29:43;;;;;;;92.93;56.77;;;17.70;99.90;;;;;;4974678;28;20461;-69
2021/06/06 01:32:15;;;;;;;102.40;57.27;;;17.70;99.90;;;;;;4974481;28;20957;-71
2021/06/06 01:34:46;;;;;;;101.63;56.27;;;17.70;99.90;;;;;;4975349;28;20485;-73
2021/06/06 01:37:17;;;;;;;95.80;55.83;;;17.70;99.90;;;;;;4964630;28;20488;-71
2021/06/06 01:39:48;;;;;;;92.30;55.60;;;17.70;99.90;;;;;;4974754;28;20512;-72
2021/06/06 01:42:20;;;;;;;84.40;51.37;;;17.70;99.90;;;;;;4974826;28;20464;-72
2021/06/06 01:44:50;;;;;;;73.67;49.70;;;17.70;99.90;;;;;;4975639;28;20451;-75
2021/06/06 01:47:20;;;;;;;79.80;48.97;;;17.70;99.90;;;;;;4973852;28;20499;-72
2021/06/06 01:49:52;;;;;;;75.90;46.50;;;17.70;99.90;;;;;;4974705;28;20464;-69
2021/06/06 01:52:21;;;;;;;104.80;57.57;;;17.70;99.90;;;;;;4974320;28;20457;-71
2021/06/06 01:54:50;;;;;;;114.20;56.38;;;17.60;99.90;;;;;;4974900;28;20492;-73
2021/06/06 01:57:20;;;;;;;83.83;54.10;;;17.60;99.90;;;;;;4974103;28;20590;-72
2021/06/06 01:59:50;;;;;;;95.50;54.67;;;17.50;99.90;;;;;;4969093;28;20504;-72
2021/06/06 02:02:18;;;;;;;87.35;52.30;;;17.60;99.90;;;;;;4974584;28;20512;-75
2021/06/06 02:04:45;;;;;;;116.10;60.93;;;17.50;99.90;;;;;;4974463;28;20198;-72
2021/06/06 02:07:17;;;;;;;109.50;61.60;;;17.50;99.90;;;;;;4973544;28;20475;-71
2021/06/06 02:09:46;;;;;;;126.37;62.63;;;17.50;99.90;;;;;;4973084;28;20455;-72
2021/06/06 02:12:14;;;;;;;117.37;65.20;;;17.50;99.90;;;;;;4974177;28;20798;-71
2021/06/06 02:14:43;;;;;;;139.80;70.30;;;17.50;99.90;;;;;;4973378;28;20482;-76
2021/06/06 02:17:15;;;;;;;137.47;69.33;;;17.50;99.90;;;;;;4973903;28;20966;-72
2021/06/06 02:19:43;;;;;;;169.47;75.67;;;17.50;99.90;;;;;;4973529;28;20569;-70
2021/06/06 02:22:13;;;;;;;119.82;62.53;;;17.40;99.90;;;;;;4974327;28;20453;-71
2021/06/06 02:24:41;;;;;;;125.80;64.33;;;17.30;99.90;;;;;;4974112;28;20205;-72
2021/06/06 02:27:15;;;;;;;135.20;72.72;;;17.30;99.90;;;;;;4973440;28;20472;-71
2021/06/06 02:29:52;;;;;;;128.80;64.82;;;17.30;99.90;;;;;;4973848;28;20227;-72
2021/06/06 02:32:30;;;;;;;139.53;71.97;;;17.30;99.90;;;;;;4973818;28;20303;-73
2021/06/06 02:35:03;;;;;;;147.30;74.47;;;17.20;99.90;;;;;;4972900;28;20483;-72
2021/06/06 02:37:32;;;;;;;117.60;66.83;;;17.20;99.90;;;;;;4963381;28;20853;-72
2021/06/06 02:40:05;;;;;;;156.23;77.10;;;17.30;99.90;;;;;;4973332;28;20552;-70
2021/06/06 02:42:39;;;;;;;152.02;75.28;;;17.30;99.90;;;;;;4963324;28;20206;-70
2021/06/06 02:45:10;;;;;;;142.17;71.30;;;17.20;99.90;;;;;;4974217;28;20215;-70
2021/06/06 02:47:40;;;;;;;146.63;71.07;;;17.20;99.90;;;;;;4968013;28;20468;-70
2021/06/06 02:50:10;;;;;;;147.43;71.30;;;17.20;99.90;;;;;;4975856;28;20477;-71
2021/06/06 02:52:41;;;;;;;124.53;66.95;;;17.20;99.90;;;;;;4976074;28;20245;-73
2021/06/06 02:55:12;;;;;;;108.03;59.55;;;17.10;99.90;;;;;;4972130;28;20216;-70
2021/06/06 02:57:44;;;;;;;96.80;58.47;;;17.20;99.90;;;;;;4973555;28;20341;-72
2021/06/06 03:00:18;;;;;;;107.60;62.27;;;17.20;99.90;;;;;;4974154;28;20539;-72
2021/06/06 03:02:49;;;;;;;97.97;55.25;;;17.20;99.90;;;;;;4973151;28;20950;-73
2021/06/06 03:05:20;;;;;;;89.87;56.53;;;17.20;99.90;;;;;;4975224;28;20241;-70
2021/06/06 03:07:51;;;;;;;97.72;55.80;;;17.20;99.90;;;;;;4970755;28;20464;-73
2021/06/06 03:10:21;;;;;;;99.60;58.40;;;17.20;99.90;;;;;;4970736;28;20825;-71
2021/06/06 03:12:51;;;;;;;105.27;57.00;;;17.20;99.90;;;;;;4975893;28;20448;-70
2021/06/06 03:15:20;;;;;;;106.35;56.33;;;17.20;99.90;;;;;;4976958;28;20485;-72
2021/06/06 03:17:50;;;;;;;102.38;56.58;;;17.20;99.90;;;;;;4976005;28;20225;-71
2021/06/06 03:20:23;;;;;;;101.87;56.93;;;17.20;99.90;;;;;;4977137;28;20304;-70
2021/06/06 03:22:51;;;;;;;107.43;59.80;;;17.30;99.90;;;;;;4977741;28;20902;-69
2021/06/06 03:25:32;;;;;;;73.87;47.90;;;17.20;99.90;;;;;;4977307;28;20456;-70
2021/06/06 03:28:00;;;;;;;91.03;50.63;;;17.20;99.90;;;;;;4975433;28;20483;-71
2021/06/06 03:30:33;;;;;;;105.55;56.08;;;17.10;99.90;;;;;;4978204;28;20204;-74
2021/06/06 03:33:01;;;;;;;115.60;55.60;;;17.20;99.90;;;;;;4978372;28;20240;-72
2021/06/06 03:35:29;;;;;;;108.97;53.70;;;17.20;99.90;;;;;;4978653;28;20206;-68
2021/06/06 03:37:56;;;;;;;105.00;56.20;;;17.20;99.90;;;;;;4977996;28;20229;-71
2021/06/06 03:40:28;;;;;;;107.38;54.85;;;17.10;99.90;;;;;;4974395;28;20209;-69
2021/06/06 03:42:55;;;;;;;95.88;51.90;;;17.10;99.90;;;;;;4978990;28;20202;-73
2021/06/06 03:45:23;;;;;;;109.80;50.85;;;17.10;99.90;;;;;;4978047;28;20220;-69
2021/06/06 03:47:51;;;;;;;106.72;52.53;;;17.10;99.90;;;;;;4978520;28;20236;-72
2021/06/06 03:50:19;;;;;;;74.07;44.88;;;17.10;99.90;;;;;;4978258;28;20232;-70
2021/06/06 03:52:46;;;;;;;99.05;49.17;;;17.10;99.90;;;;;;4980011;28;20223;-69
2021/06/06 03:55:15;;;;;;;68.35;43.55;;;17.10;99.90;;;;;;4974311;28;20230;-70
2021/06/06 03:57:42;;;;;;;94.17;50.53;;;17.00;99.90;;;;;;4972357;28;20319;-72
2021/06/06 04:00:21;;;;;;;72.22;45.08;;;17.00;99.90;;;;;;4973676;28;20495;-73
2021/06/06 04:02:49;;;;;;;80.38;46.10;;;17.00;99.90;;;;;;4968075;28;20204;-72
2021/06/06 04:05:17;;;;;;;74.15;41.78;;;16.90;99.90;;;;;;4971230;28;20277;-73
2021/06/06 04:07:44;;;;;;;75.18;44.05;;;16.90;99.90;;;;;;4972510;28;20219;-71
2021/06/06 04:10:11;;;;;;;76.82;45.13;;;16.90;99.90;;;;;;4969783;28;20208;-72
2021/06/06 04:12:38;;;;;;;78.45;47.08;;;16.80;99.90;;;;;;4973363;28;20208;-72
2021/06/06 04:15:07;;;;;;;79.20;46.78;;;16.80;99.90;;;;;;4970971;28;20698;-71
2021/06/06 04:17:33;;;;;;;76.32;47.08;;;16.70;99.90;;;;;;4966002;28;20225;-73
2021/06/06 04:20:01;;;;;;;67.97;40.50;;;16.70;99.90;;;;;;4967019;28;20227;-71
2021/06/06 04:22:28;;;;;;;75.00;46.47;;;16.70;99.90;;;;;;4973036;28;20667;-72
2021/06/06 04:24:55;;;;;;;73.15;46.72;;;16.70;99.90;;;;;;4972548;28;20305;-74
2021/06/06 04:27:21;;;;;;;61.92;40.08;;;16.70;99.90;;;;;;4973576;28;20317;-69
2021/06/06 04:29:48;;;;;;;84.50;45.22;;;16.70;99.90;;;;;;4974309;28;20267;-75
2021/06/06 04:32:17;;;;;;;69.55;42.10;;;16.70;99.90;;;;;;4968922;28;20264;-72
2021/06/06 04:34:45;;;;;;;71.45;42.95;;;16.70;99.90;;;;;;4976551;28;20227;-73
2021/06/06 04:37:14;;;;;;;78.30;45.85;;;16.70;99.90;;;;;;4975759;28;20573;-72
2021/06/06 04:39:42;;;;;;;69.88;42.30;;;16.60;99.90;;;;;;4976212;28;20204;-71
2021/06/06 04:42:11;;;;;;;77.60;44.37;;;16.70;99.90;;;;;;4976195;28;20209;-74
2021/06/06 04:44:38;;;;;;;65.90;42.15;;;16.70;99.90;;;;;;4970112;28;20821;-71
2021/06/06 04:47:07;;;;;;;67.93;41.55;;;16.70;99.90;;;;;;4963890;28;20241;-75
2021/06/06 04:49:34;;;;;;;63.77;42.37;;;16.70;99.90;;;;;;4963194;28;20241;-70
2021/06/06 04:52:05;;;;;;;47.88;32.20;;;16.70;99.90;;;;;;4961585;28;20449;-73
2021/06/06 04:54:33;;;;;;;49.28;35.22;;;16.80;99.90;;;;;;4964404;28;20200;-76
2021/06/06 04:57:00;;;;;;;53.03;36.65;;;16.80;99.90;;;;;;4967921;28;20232;-72
2021/06/06 04:59:27;;;;;;;50.42;35.08;;;16.90;99.90;;;;;;4968108;28;20210;-72
2021/06/06 05:01:54;;;;;;;66.32;39.03;;;16.90;99.90;;;;;;4966596;28;20253;-73
2021/06/06 05:04:21;;;;;;;66.60;39.47;;;16.90;99.90;;;;;;4975297;28;20595;-73
2021/06/06 05:06:49;;;;;;;64.65;35.08;;;17.00;99.90;;;;;;4977602;28;20237;-71
2021/06/06 05:09:15;;;;;;;45.83;30.97;;;16.90;99.90;;;;;;4976753;28;20659;-72
2021/06/06 05:11:43;;;;;;;50.70;32.92;;;17.00;99.90;;;;;;4965396;28;20465;-69
2021/06/06 05:14:10;;;;;;;51.65;32.85;;;17.00;99.90;;;;;;4968416;28;20200;-71
2021/06/06 05:16:36;;;;;;;51.97;34.13;;;17.00;99.90;;;;;;4965634;28;20229;-69
2021/06/06 05:19:03;;;;;;;38.13;28.80;;;17.00;99.90;;;;;;4967247;28;20675;-70
2021/06/06 05:21:31;;;;;;;50.80;30.60;;;17.00;99.90;;;;;;4965835;28;20459;-71
2021/06/06 05:23:58;;;;;;;33.25;23.55;;;17.00;99.90;;;;;;4967530;28;20213;-71
2021/06/06 05:26:25;;;;;;;39.87;27.70;;;17.00;99.90;;;;;;4968078;28;20224;-70
2021/06/06 05:28:53;;;;;;;34.78;26.35;;;17.00;99.90;;;;;;4967189;28;20856;-72
2021/06/06 05:31:21;;;;;;;42.03;28.73;;;17.00;99.90;;;;;;4964428;28;20211;-73
2021/06/06 05:33:48;;;;;;;33.33;26.73;;;17.00;99.90;;;;;;4962465;28;20269;-73
2021/06/06 05:36:16;;;;;;;38.65;28.38;;;17.00;99.90;;;;;;4957315;28;20480;-71
2021/06/06 05:38:43;;;;;;;41.70;26.88;;;17.00;99.90;;;;;;4963791;28;20225;-71
2021/06/06 05:41:11;;;;;;;28.30;21.60;;;17.00;99.90;;;;;;4968442;28;20260;-73
2021/06/06 05:43:38;;;;;;;36.35;26.40;;;17.00;99.90;;;;;;4969134;28;20213;-70
2021/06/06 05:46:08;;;;;;;35.90;26.67;;;17.00;99.90;;;;;;4966573;28;20736;-68
2021/06/06 05:48:34;;;;;;;48.55;30.25;;;17.10;99.90;;;;;;4964579;28;20217;-71
2021/06/06 05:51:02;;;;;;;46.20;29.17;;;17.10;99.90;;;;;;4964163;28;20639;-70
2021/06/06 05:53:29;;;;;;;41.15;28.50;;;17.10;99.90;;;;;;4969961;28;20264;-71
2021/06/06 05:55:57;;;;;;;41.70;27.43;;;17.10;99.90;;;;;;4957429;28;20243;-73
2021/06/06 05:58:25;;;;;;;45.92;28.15;;;17.10;99.90;;;;;;4964882;28;20524;-70
2021/06/06 06:00:52;;;;;;;42.70;28.27;;;17.10;99.90;;;;;;4961198;28;20293;-71
2021/06/06 06:03:21;;;;;;;38.03;27.27;;;17.10;99.90;;;;;;4961461;28;20252;-72
2021/06/06 06:05:48;;;;;;;38.70;27.87;;;17.10;99.90;;;;;;4958160;28;20473;-71
2021/06/06 06:08:19;;;;;;;52.70;31.77;;;17.20;99.90;;;;;;4967017;28;20507;-72
2021/06/06 06:10:47;;;;;;;41.00;27.13;;;17.10;99.90;;;;;;4958292;28;20981;-71
2021/06/06 06:13:15;;;;;;;37.13;25.30;;;17.20;99.90;;;;;;4966748;28;20219;-74
2021/06/06 06:15:41;;;;;;;40.70;26.73;;;17.20;99.90;;;;;;4963849;28;20226;-72
2021/06/06 06:18:09;;;;;;;40.67;27.10;;;17.30;99.90;;;;;;4967724;28;20521;-72
2021/06/06 06:20:38;;;;;;;35.93;25.87;;;17.20;99.90;;;;;;4961907;28;20217;-73
2021/06/06 06:23:05;;;;;;;39.90;25.10;;;17.30;99.90;;;;;;4967318;28;20448;-72
2021/06/06 06:25:32;;;;;;;40.60;28.42;;;17.40;99.90;;;;;;4967906;28;20213;-71
2021/06/06 06:28:00;;;;;;;35.57;24.73;;;17.40;99.90;;;;;;4963133;28;20225;-72
2021/06/06 06:30:30;;;;;;;43.60;25.63;;;17.40;99.90;;;;;;4960439;28;20900;-72
2021/06/06 06:32:57;;;;;;;52.97;32.72;;;17.40;99.90;;;;;;4966510;28;20912;-72
2021/06/06 06:35:25;;;;;;;49.17;32.67;;;17.30;99.90;;;;;;4961904;28;20285;-72
2021/06/06 06:37:53;;;;;;;54.30;33.17;;;17.20;99.90;;;;;;4972009;28;20554;-75
2021/06/06 06:40:21;;;;;;;51.07;31.20;;;17.20;99.90;;;;;;4963853;28;20214;-71
2021/06/06 06:42:49;;;;;;;57.33;34.50;;;17.10;99.90;;;;;;4965074;28;20438;-71
2021/06/06 06:45:19;;;;;;;51.22;31.60;;;17.10;99.90;;;;;;4964851;28;20209;-72
2021/06/06 06:47:47;;;;;;;40.23;28.23;;;17.10;99.90;;;;;;4967781;28;20229;-74
2021/06/06 06:50:17;;;;;;;49.83;31.47;;;17.10;99.90;;;;;;4967655;28;20449;-73
2021/06/06 06:52:43;;;;;;;45.05;28.30;;;17.20;99.90;;;;;;4959162;28;20441;-71
2021/06/06 06:55:15;;;;;;;38.30;26.70;;;17.20;99.90;;;;;;4963809;28;20216;-71
2021/06/06 06:57:41;;;;;;;33.57;23.50;;;17.20;99.90;;;;;;4958488;28;20487;-76
2021/06/06 07:00:11;;;;;;;29.17;21.00;;;17.40;99.90;;;;;;4964697;28;20451;-76
2021/06/06 07:02:37;;;;;;;28.17;19.83;;;17.40;99.90;;;;;;4973423;28;20452;-74
2021/06/06 07:05:05;;;;;;;33.83;24.17;;;17.50;99.90;;;;;;4970197;28;20465;-77
2021/06/06 07:07:32;;;;;;;40.13;27.33;;;17.50;99.90;;;;;;4967071;28;20453;-74
2021/06/06 07:10:00;;;;;;;39.23;26.80;;;17.50;99.90;;;;;;4972539;28;20204;-76
2021/06/06 07:12:28;;;;;;;43.27;27.93;;;17.50;99.90;;;;;;4973345;28;20733;-72
2021/06/06 07:14:54;;;;;;;48.17;31.33;;;17.60;99.90;;;;;;4973355;28;20519;-70
2021/06/06 07:17:21;;;;;;;39.87;28.60;;;17.40;99.90;;;;;;4973772;28;20479;-74
2021/06/06 07:19:48;;;;;;;46.83;31.13;;;17.40;99.90;;;;;;4972892;28;20467;-71
2021/06/06 07:22:15;;;;;;;40.13;29.43;;;17.30;99.90;;;;;;4973478;28;20480;-72
2021/06/06 07:24:41;;;;;;;37.97;25.90;;;17.30;99.90;;;;;;4972097;28;20447;-71
2021/06/06 07:27:08;;;;;;;35.37;25.20;;;17.30;99.90;;;;;;4971116;28;20483;-72
2021/06/06 07:29:36;;;;;;;42.03;25.07;;;17.40;99.90;;;;;;4973088;28;20460;-70
2021/06/06 07:32:04;;;;;;;32.83;21.50;;;17.50;99.90;;;;;;4973268;28;20443;-72
2021/06/06 07:34:32;;;;;;;29.87;22.43;;;17.70;99.90;;;;;;4973675;28;20556;-72
2021/06/06 07:37:01;;;;;;;31.77;23.67;;;17.60;99.90;;;;;;4973013;28;20485;-69
2021/06/06 07:39:29;;;;;;;28.60;22.47;;;17.70;99.90;;;;;;4972727;28;20926;-71
2021/06/06 07:41:56;;;;;;;26.70;20.53;;;17.80;99.90;;;;;;4972510;28;20457;-69
2021/06/06 07:44:23;;;;;;;28.40;18.63;;;17.90;99.90;;;;;;4973467;28;20439;-71
2021/06/06 07:46:51;;;;;;;23.10;18.47;;;17.90;99.90;;;;;;4973390;28;20471;-69
2021/06/06 07:49:18;;;;;;;23.87;19.57;;;18.00;99.90;;;;;;4976430;28;20441;-69
2021/06/06 07:51:45;;;;;;;25.83;20.73;;;18.10;99.90;;;;;;4971874;28;20592;-69
2021/06/06 07:54:11;;;;;;;29.00;20.00;;;18.10;99.90;;;;;;4967103;28;20441;-70
2021/06/06 07:56:38;;;;;;;27.67;20.37;;;18.20;99.90;;;;;;4971473;28;20491;-68
2021/06/06 07:59:05;;;;;;;33.63;22.37;;;18.10;99.90;;;;;;4960504;28;20452;-70
2021/06/06 08:01:32;;;;;;;31.73;22.13;;;18.10;99.90;;;;;;4973188;28;20441;-68
2021/06/06 08:04:00;;;;;;;27.90;21.13;;;18.30;99.90;;;;;;4970337;28;20454;-70
2021/06/06 08:06:27;;;;;;;28.17;21.50;;;18.40;99.90;;;;;;4976829;28;20462;-70
2021/06/06 08:08:55;;;;;;;29.37;22.63;;;18.40;99.90;;;;;;4976232;28;20446;-69
2021/06/06 08:11:22;;;;;;;27.57;20.77;;;18.50;99.90;;;;;;4976464;28;20443;-69
2021/06/06 08:13:50;;;;;;;28.60;20.87;;;18.60;99.90;;;;;;4977613;28;20788;-70
2021/06/06 08:16:17;;;;;;;32.63;22.97;;;18.70;99.90;;;;;;4976052;28;20489;-69
2021/06/06 08:18:45;;;;;;;30.80;21.93;;;18.80;99.90;;;;;;4976166;28;20522;-69
2021/06/06 08:21:17;;;;;;;32.77;22.87;;;18.80;99.90;;;;;;4976313;28;20462;-69
2021/06/06 08:23:44;;;;;;;32.60;23.97;;;18.70;99.90;;;;;;4972186;28;20452;-68
2021/06/06 08:26:12;;;;;;;36.07;23.93;;;18.60;99.90;;;;;;4975617;28;20495;-70
2021/06/06 08:28:40;;;;;;;29.50;22.10;;;18.70;99.90;;;;;;4973440;28;20437;-70
2021/06/06 08:31:10;;;;;;;35.20;25.07;;;18.70;99.90;;;;;;4975355;28;20541;-69
2021/06/06 08:33:38;;;;;;;38.47;25.60;;;18.80;99.90;;;;;;4974270;28;20878;-71
2021/06/06 08:36:08;;;;;;;40.80;26.60;;;18.80;99.90;;;;;;4975245;28;20636;-69
2021/06/06 08:38:36;;;;;;;32.57;22.90;;;18.70;99.90;;;;;;4974923;28;20469;-69
2021/06/06 08:41:10;;;;;;;39.90;27.73;;;18.70;99.90;;;;;;4976116;28;20456;-70
2021/06/06 08:43:44;;;;;;;36.63;26.47;;;18.60;99.90;;;;;;4975950;28;21127;-71
2021/06/06 08:46:13;;;;;;;35.43;25.00;;;18.50;99.90;;;;;;4975394;28;20967;-68
2021/06/06 08:48:41;;;;;;;37.43;25.27;;;18.40;99.90;;;;;;4980490;28;20456;-73
2021/06/06 08:51:20;;;;;;;33.63;24.33;;;18.40;99.90;;;;;;4976034;28;20456;-71
2021/06/06 08:53:57;;;;;;;30.73;22.70;;;18.60;99.90;;;;;;4949381;28;20445;-71
2021/06/06 08:56:28;;;;;;;36.30;23.90;;;18.70;99.90;;;;;;4961351;28;20789;-71
2021/06/06 08:59:01;;;;;;;35.50;26.17;;;18.70;99.90;;;;;;4973892;28;20950;-69
2021/06/06 09:01:38;;;;;;;35.00;24.40;;;18.70;99.90;;;;;;4965476;28;20445;-73
2021/06/06 09:04:12;;;;;;;36.43;26.90;;;18.70;99.90;;;;;;4970860;28;20923;-70
2021/06/06 09:06:46;;;;;;;33.93;25.77;;;18.70;99.90;;;;;;4956247;28;20464;-70
2021/06/06 09:09:15;;;;;;;30.13;24.50;;;18.70;99.90;;;;;;4956706;28;20928;-71
2021/06/06 09:11:42;;;;;;;39.73;28.00;;;18.60;99.90;;;;;;4974860;28;20457;-70
2021/06/06 09:14:09;;;;;;;31.30;22.20;;;18.40;99.90;;;;;;4971237;28;20442;-71
2021/06/06 09:16:54;;;;;;;28.43;22.17;;;18.40;99.90;;;;;;4972715;28;20539;-70
2021/06/06 09:19:21;;;;;;;24.90;20.50;;;18.50;99.90;;;;;;4974302;28;20924;-68
2021/06/06 09:21:52;;;;;;;26.70;21.90;;;18.60;99.90;;;;;;4973499;28;20445;-71
2021/06/06 09:24:33;;;;;;;27.50;22.27;;;18.70;99.90;;;;;;4972888;28;20441;-71
2021/06/06 09:27:17;;;;;;;30.80;22.20;;;19.00;99.90;;;;;;4969981;28;20457;-70
2021/06/06 09:29:44;;;;;;;31.50;23.20;;;19.00;99.90;;;;;;4972709;28;20536;-71
2021/06/06 09:32:14;;;;;;;31.00;24.17;;;19.00;99.90;;;;;;4973323;28;20438;-69
2021/06/06 09:34:53;;;;;;;26.50;22.80;;;19.10;99.90;;;;;;4974243;28;20446;-71
2021/06/06 09:37:22;;;;;;;28.13;20.70;;;19.00;99.90;;;;;;4947190;28;20464;-68
2021/06/06 09:40:01;;;;;;;25.50;22.83;;;19.00;99.90;;;;;;4970992;28;20473;-74
2021/06/06 09:42:38;;;;;;;29.10;23.97;;;19.00;99.90;;;;;;4966318;28;20456;-75
2021/06/06 09:45:11;;;;;;;22.43;19.80;;;18.90;99.90;;;;;;4966285;28;20472;-76
2021/06/06 09:47:38;;;;;;;30.83;24.70;;;19.00;99.90;;;;;;4970475;28;20465;-68
2021/06/06 09:50:11;;;;;;;26.23;23.40;;;18.90;99.90;;;;;;4973951;28;20474;-72
2021/06/06 09:52:41;;;;;;;24.07;20.93;;;18.90;99.90;;;;;;4972323;28;20472;-70
2021/06/06 09:55:20;;;;;;;25.33;22.67;;;18.80;99.90;;;;;;4971604;28;20917;-71
2021/06/06 09:57:50;;;;;;;26.20;22.63;;;18.90;99.90;;;;;;4956742;28;20555;-70
2021/06/06 10:00:34;;;;;;;24.23;21.73;;;19.00;99.90;;;;;;4973449;28;20476;-68
2021/06/06 10:03:05;;;;;;;22.70;20.40;;;19.10;99.90;;;;;;4958345;28;21950;-70
2021/06/06 10:05:35;;;;;;;20.80;18.70;;;19.20;99.90;;;;;;4975344;28;20446;-75
2021/06/06 10:08:05;;;;;;;20.53;18.50;;;19.40;99.90;;;;;;4976883;28;21162;-73
2021/06/06 10:10:35;;;;;;;18.60;16.80;;;19.40;99.90;;;;;;4974127;28;20931;-72
2021/06/06 10:13:06;;;;;;;20.30;17.50;;;19.50;99.90;;;;;;4974019;28;20521;-75
2021/06/06 10:15:41;;;;;;;20.47;18.37;;;19.50;99.90;;;;;;4972985;28;20492;-71
2021/06/06 10:18:13;;;;;;;21.00;18.30;;;19.30;99.90;;;;;;4978167;28;20465;-70
2021/06/06 10:20:42;;;;;;;21.23;18.97;;;19.30;99.90;;;;;;4969942;28;21013;-71
2021/06/06 10:23:13;;;;;;;25.43;18.53;;;19.30;99.90;;;;;;4965762;28;20484;-70
2021/06/06 10:25:46;;;;;;;20.23;18.23;;;19.40;99.90;;;;;;4965882;28;20817;-73
2021/06/06 10:28:16;;;;;;;23.13;20.77;;;19.60;99.90;;;;;;4972080;28;20466;-70
2021/06/06 10:30:45;;;;;;;22.20;20.00;;;19.60;99.90;;;;;;4973085;28;20460;-72
2021/06/06 10:33:19;;;;;;;21.50;19.30;;;19.50;99.90;;;;;;4972480;28;20433;-72
2021/06/06 10:35:46;;;;;;;21.17;17.70;;;19.70;99.90;;;;;;4972116;28;20478;-67
2021/06/06 10:38:14;;;;;;;17.80;16.13;;;19.80;99.90;;;;;;4972886;28;20505;-70
2021/06/06 10:40:45;;;;;;;18.20;15.93;;;19.90;99.90;;;;;;4971155;28;20536;-69
2021/06/06 10:43:17;;;;;;;19.90;17.90;;;19.90;99.90;;;;;;4973136;28;20755;-70
2021/06/06 10:45:49;;;;;;;21.03;18.87;;;20.00;99.90;;;;;;4971640;28;20454;-69
2021/06/06 10:48:24;;;;;;;17.37;15.63;;;19.90;99.90;;;;;;4971157;28;20863;-67
2021/06/06 10:50:54;;;;;;;19.87;17.63;;;19.80;99.90;;;;;;4969080;28;20453;-72
2021/06/06 10:53:23;;;;;;;17.53;15.60;;;19.70;99.90;;;;;;4969958;28;20438;-68
2021/06/06 10:56:01;;;;;;;16.60;14.87;;;19.60;99.90;;;;;;4962552;28;20477;-72
2021/06/06 10:58:45;;;;;;;16.10;14.37;;;19.70;99.90;;;;;;4957124;28;20464;-71
2021/06/06 11:01:25;;;;;;;16.90;15.17;;;19.80;99.90;;;;;;4967718;28;20464;-74
2021/06/06 11:04:07;;;;;;;18.03;16.13;;;19.90;99.90;;;;;;4968770;28;20441;-71
2021/06/06 11:06:37;;;;;;;19.23;16.87;;;19.90;99.90;;;;;;4969933;28;20467;-72
2021/06/06 11:09:06;;;;;;;24.50;18.67;;;19.60;99.90;;;;;;4972519;28;20548;-70
2021/06/06 11:11:37;;;;;;;19.20;17.20;;;19.40;99.90;;;;;;4971458;28;20951;-72
2021/06/06 11:14:16;;;;;;;16.90;15.20;;;19.40;99.90;;;;;;4962403;28;20442;-74
2021/06/06 11:19:27;;;;;;;18.87;16.90;;;19.70;99.90;;;;;;4992546;28;20489;-72
2021/06/06 11:21:57;;;;;;;19.67;17.67;;;19.80;99.90;;;;;;4992528;28;20456;-74
2021/06/06 11:24:46;;;;;;;19.93;17.07;;;19.80;99.90;;;;;;4992922;28;20450;-72
2021/06/06 11:27:28;;;;;;;19.07;17.20;;;19.70;99.90;;;;;;5358678;23;20576;-69
2021/06/06 11:29:59;;;;;;;23.90;21.50;;;19.60;99.90;;;;;;5039080;28;20449;-69
2021/06/06 11:32:30;;;;;;;19.73;17.70;;;19.40;99.90;;;;;;5044771;28;20457;-70
2021/06/06 11:35:23;;;;;;;18.40;16.47;;;19.30;99.90;;;;;;5049378;28;20441;-69
2021/06/06 11:37:53;;;;;;;20.47;18.37;;;19.40;99.90;;;;;;5030098;28;20463;-69
2021/06/06 11:40:36;;;;;;;22.60;19.50;;;19.50;99.90;;;;;;5028946;28;20818;-69
2021/06/06 11:43:20;;;;;;;20.73;18.83;;;19.40;99.90;;;;;;5032035;28;20438;-70
2021/06/06 11:45:52;;;;;;;22.53;20.23;;;19.50;99.90;;;;;;5014701;28;20503;-70
2021/06/06 11:48:29;;;;;;;17.97;16.20;;;19.50;99.90;;;;;;5030256;28;21016;-70
2021/06/06 11:50:58;;;;;;;18.63;16.70;;;19.60;99.90;;;;;;5036844;28;20463;-70
2021/06/06 11:53:30;;;;;;;20.43;18.33;;;19.60;99.90;;;;;;5038336;28;20847;-70
2021/06/06 11:56:08;;;;;;;20.30;17.00;;;19.70;99.90;;;;;;5031547;28;21044;-72
2021/06/06 11:58:41;;;;;;;19.10;17.03;;;19.70;99.90;;;;;;5031741;28;20939;-70
2021/06/06 12:01:13;;;;;;;19.67;17.53;;;19.80;99.90;;;;;;5031057;28;20455;-70
2021/06/06 12:03:41;;;;;;;21.87;19.57;;;19.90;99.90;;;;;;5031466;28;20508;-71
2021/06/06 12:06:11;;;;;;;25.00;22.17;;;19.90;99.90;;;;;;5031955;28;20442;-69
2021/06/06 12:08:41;;;;;;;26.03;23.30;;;19.80;99.90;;;;;;5034318;28;20457;-70
2021/06/06 12:11:10;;;;;;;29.37;25.30;;;19.80;99.90;;;;;;5030893;28;20440;-72
2021/06/06 12:13:39;;;;;;;25.07;22.27;;;19.70;99.90;;;;;;5027157;28;20937;-71
2021/06/06 12:16:10;;;;;;;31.10;21.57;;;19.70;99.90;;;;;;5023007;28;20522;-72
2021/06/06 12:18:38;;;;;;;28.10;25.17;;;19.70;99.90;;;;;;5029248;28;20478;-69
2021/06/06 12:21:11;;;;;;;29.70;26.60;;;19.80;99.90;;;;;;5030707;28;20450;-70
2021/06/06 12:23:41;;;;;;;31.93;27.57;;;19.70;99.90;;;;;;5030279;28;20447;-69
2021/06/06 12:26:10;;;;;;;28.57;24.97;;;19.70;99.90;;;;;;5028923;28;20445;-71
2021/06/06 12:28:42;;;;;;;35.10;28.57;;;19.80;99.90;;;;;;5031025;28;20502;-71
2021/06/06 12:31:21;;;;;;;34.63;26.37;;;19.80;99.90;;;;;;5029078;28;20443;-71
2021/06/06 12:33:48;;;;;;;34.37;28.57;;;19.80;99.90;;;;;;5027214;28;20462;-72
2021/06/06 12:36:18;;;;;;;32.53;28.40;;;19.90;99.90;;;;;;5022337;28;20547;-70
2021/06/06 12:38:45;;;;;;;35.00;29.93;;;20.10;99.90;;;;;;5025937;28;20457;-70
2021/06/06 12:41:14;;;;;;;31.30;27.17;;;20.10;99.90;;;;;;5027150;28;20849;-70